Miami, FL

10:54 AM EDT on May 29, 2015 (GMT -0400)
Miami International | | Change Station
CLOSE
Current Station
Airport
Location: Miami,
Elevation: 13 ft
Nearby Weather Stations

Elev 13 ft 25.79 °N, 80.32 °W | Updated 1 hour ago

Mostly Cloudy
Mostly Cloudy
83 °F
Feels Like 85 °F
N
8
Wind Variable Wind from NE

Today
High -- | Low -- °F
--% Chance of Precip.
Yesterday
High -- | Low -- °F
Precip. -- in
6:30 AM 8:06 PM
Waxing Gibbous, 84% visible
Pressure 30.07 in
Visibility 10.0 miles
Clouds Scattered Clouds 3200 ft
Mostly Cloudy 5500 ft
Mostly Cloudy 30000 ft
Heat Index 85 °F
Dew Point 67 °F
Humidity 58%
Rainfall 0.00 in
Snow Depth Not available.
UV 4 out of 12
Pollen 3.80 out of 12
Air Quality Not available.
Flu Activity Sporadic
METAR KMIA 291353Z 05007KT 10SM SCT032 BKN055 BKN300 28/19 A3006 RMK AO2 SLP181 T02830194

More Conditions Fewer Conditions

Pressure 30.07 in
Visibility 10.0 miles
Clouds Scattered Clouds 3200 ft
Mostly Cloudy 5500 ft
Mostly Cloudy 30000 ft
Heat Index 85 °F
Dew Point 67 °F
Humidity 58%
Rainfall 0.00 in
Snow Depth Not available.
UV 4 out of 12
Pollen 3.80 out of 12
Air Quality Not available.
Flu Activity Sporadic
METAR KMIA 291353Z 05007KT 10SM SCT032 BKN055 BKN300 28/19 A3006 RMK AO2 SLP181 T02830194

More Conditions Fewer Conditions

Nowcast | as of 8:17 am EDT on May 29, 2015

Showers are moving on shore along the Atlantic coast this morning, and will continue to do so through the morning hours. They are moving between 10 and 15 miles per hour to the west and will generally bring up to a quarter of an inch of rain. Coverage is expected to increase this afternoon, and it will be possible for a few of the showers to develop into thunderstorms, mainly this afternoon, west of most of the Southeast Florida Metro areas.

×

10-Day Weather Forecast

Almanac

Astronomy

May. 29, 2015 Rise Set
Actual Time
Civil Twilight
Nautical Twilight
Astronomical Twilight
Moon
Length of Visible Light
Length of Day
Tomorrow will be .
, % of the Moon is Illuminated

Today's Extremes

State Highs State Lows

Community

WunderPhotos

Upload Photos

1,825,288 photos uploaded!

WunderBlogs® & News

Nearby

Air Quality

  Air Quality AQ Index Pollutant
Not available.

Snow Depth

Station Depth Elevation

Earthquake Activity

City Distance Mag. Time & Date
Minimum magnitude displayed is 2.5.

Coastal Water Temperatures

Place Temperature

Stations

Nearby Weather Stations

Station Location Temp. Windchill Dew Point Humidity Wind Precip. Elev Updated Type